sensor_id;sensor_type;location;lat;lon;timestamp;P1;durP1;ratioP1;P2;durP2;ratioP2
9720;SDS011;4899;42.644;23.366;2023-08-08T00:01:10;6.63;;;6.03;;
9720;SDS011;4899;42.644;23.366;2023-08-08T00:03:36;5.10;;;4.70;;
9720;SDS011;4899;42.644;23.366;2023-08-08T00:06:01;5.60;;;5.10;;
9720;SDS011;4899;42.644;23.366;2023-08-08T00:08:26;5.73;;;5.23;;
9720;SDS011;4899;42.644;23.366;2023-08-08T00:10:52;5.50;;;5.00;;
9720;SDS011;4899;42.644;23.366;2023-08-08T00:13:17;2.53;;;2.33;;
9720;SDS011;4899;42.644;23.366;2023-08-08T00:15:42;2.53;;;2.33;;
9720;SDS011;4899;42.644;23.366;2023-08-08T00:18:08;1.50;;;1.40;;
9720;SDS011;4899;42.644;23.366;2023-08-08T00:20:33;1.60;;;1.50;;
9720;SDS011;4899;42.644;23.366;2023-08-08T00:22:59;1.47;;;1.37;;
9720;SDS011;4899;42.644;23.366;2023-08-08T00:25:24;2.83;;;1.60;;
9720;SDS011;4899;42.644;23.366;2023-08-08T00:27:50;2.07;;;1.17;;
9720;SDS011;4899;42.644;23.366;2023-08-08T00:30:15;1.00;;;1.00;;
9720;SDS011;4899;42.644;23.366;2023-08-08T00:32:40;2.00;;;1.10;;
9720;SDS011;4899;42.644;23.366;2023-08-08T00:35:06;1.23;;;1.23;;
9720;SDS011;4899;42.644;23.366;2023-08-08T00:37:31;1.10;;;1.10;;
9720;SDS011;4899;42.644;23.366;2023-08-08T00:39:57;1.37;;;1.17;;
9720;SDS011;4899;42.644;23.366;2023-08-08T00:42:22;1.10;;;1.10;;
9720;SDS011;4899;42.644;23.366;2023-08-08T00:44:47;1.53;;;1.13;;
9720;SDS011;4899;42.644;23.366;2023-08-08T00:47:13;1.00;;;1.00;;
9720;SDS011;4899;42.644;23.366;2023-08-08T00:49:38;1.33;;;1.33;;
9720;SDS011;4899;42.644;23.366;2023-08-08T00:52:03;1.10;;;1.10;;
9720;SDS011;4899;42.644;23.366;2023-08-08T00:54:29;1.50;;;1.40;;
9720;SDS011;4899;42.644;23.366;2023-08-08T00:56:55;1.50;;;1.10;;
9720;SDS011;4899;42.644;23.366;2023-08-08T00:59:20;1.10;;;1.10;;
9720;SDS011;4899;42.644;23.366;2023-08-08T01:01:46;1.40;;;1.30;;
9720;SDS011;4899;42.644;23.366;2023-08-08T01:04:11;1.30;;;1.30;;
9720;SDS011;4899;42.644;23.366;2023-08-08T01:06:39;1.63;;;1.53;;
9720;SDS011;4899;42.644;23.366;2023-08-08T01:09:30;1.17;;;1.17;;
9720;SDS011;4899;42.644;23.366;2023-08-08T01:11:53;1.30;;;1.30;;
9720;SDS011;4899;42.644;23.366;2023-08-08T01:14:19;1.77;;;1.67;;
9720;SDS011;4899;42.644;23.366;2023-08-08T01:16:45;1.43;;;1.33;;
9720;SDS011;4899;42.644;23.366;2023-08-08T01:19:14;2.73;;;1.50;;
9720;SDS011;4899;42.644;23.366;2023-08-08T01:21:43;1.20;;;1.20;;
9720;SDS011;4899;42.644;23.366;2023-08-08T01:26:45;1.20;;;1.20;;
9720;SDS011;4899;42.644;23.366;2023-08-08T01:29:10;4.17;;;1.30;;
9720;SDS011;4899;42.644;23.366;2023-08-08T01:31:36;1.53;;;1.10;;
9720;SDS011;4899;42.644;23.366;2023-08-08T01:34:01;1.47;;;1.10;;
9720;SDS011;4899;42.644;23.366;2023-08-08T01:36:38;1.23;;;1.10;;
9720;SDS011;4899;42.644;23.366;2023-08-08T01:39:04;1.47;;;1.40;;
9720;SDS011;4899;42.644;23.366;2023-08-08T01:41:33;1.00;;;1.00;;
9720;SDS011;4899;42.644;23.366;2023-08-08T01:43:59;1.47;;;1.37;;
9720;SDS011;4899;42.644;23.366;2023-08-08T01:46:25;1.60;;;1.50;;
9720;SDS011;4899;42.644;23.366;2023-08-08T01:48:51;1.00;;;1.00;;
9720;SDS011;4899;42.644;23.366;2023-08-08T01:51:16;1.67;;;1.10;;
9720;SDS011;4899;42.644;23.366;2023-08-08T01:53:42;1.57;;;1.10;;
9720;SDS011;4899;42.644;23.366;2023-08-08T01:56:07;1.40;;;1.40;;
9720;SDS011;4899;42.644;23.366;2023-08-08T01:58:33;1.50;;;1.40;;
9720;SDS011;4899;42.644;23.366;2023-08-08T02:00:58;1.33;;;1.30;;
9720;SDS011;4899;42.644;23.366;2023-08-08T02:03:23;1.50;;;1.40;;
9720;SDS011;4899;42.644;23.366;2023-08-08T02:05:49;1.70;;;1.60;;
9720;SDS011;4899;42.644;23.366;2023-08-08T02:08:14;1.90;;;1.30;;
9720;SDS011;4899;42.644;23.366;2023-08-08T02:10:39;3.57;;;1.40;;
9720;SDS011;4899;42.644;23.366;2023-08-08T02:13:05;1.87;;;1.77;;
9720;SDS011;4899;42.644;23.366;2023-08-08T02:15:30;1.83;;;1.43;;
9720;SDS011;4899;42.644;23.366;2023-08-08T02:17:55;1.77;;;1.67;;
9720;SDS011;4899;42.644;23.366;2023-08-08T02:20:20;2.43;;;1.50;;
9720;SDS011;4899;42.644;23.366;2023-08-08T02:22:46;1.50;;;1.40;;
9720;SDS011;4899;42.644;23.366;2023-08-08T02:25:12;1.70;;;1.60;;
9720;SDS011;4899;42.644;23.366;2023-08-08T02:27:37;1.50;;;1.40;;
9720;SDS011;4899;42.644;23.366;2023-08-08T02:30:02;1.70;;;1.60;;
9720;SDS011;4899;42.644;23.366;2023-08-08T02:32:28;1.67;;;1.57;;
9720;SDS011;4899;42.644;23.366;2023-08-08T02:34:53;1.60;;;1.50;;
9720;SDS011;4899;42.644;23.366;2023-08-08T02:37:18;1.43;;;1.40;;
9720;SDS011;4899;42.644;23.366;2023-08-08T02:39:44;1.70;;;1.60;;
9720;SDS011;4899;42.644;23.366;2023-08-08T02:42:10;1.53;;;1.47;;
9720;SDS011;4899;42.644;23.366;2023-08-08T02:44:37;2.13;;;1.60;;
9720;SDS011;4899;42.644;23.366;2023-08-08T02:47:02;1.67;;;1.57;;
9720;SDS011;4899;42.644;23.366;2023-08-08T02:49:27;1.80;;;1.70;;
9720;SDS011;4899;42.644;23.366;2023-08-08T02:51:53;2.00;;;1.90;;
9720;SDS011;4899;42.644;23.366;2023-08-08T02:54:19;2.10;;;2.00;;
9720;SDS011;4899;42.644;23.366;2023-08-08T02:56:44;1.70;;;1.60;;
9720;SDS011;4899;42.644;23.366;2023-08-08T02:59:09;2.03;;;1.80;;
9720;SDS011;4899;42.644;23.366;2023-08-08T03:01:35;1.97;;;1.87;;
9720;SDS011;4899;42.644;23.366;2023-08-08T03:04:04;1.93;;;1.70;;
9720;SDS011;4899;42.644;23.366;2023-08-08T03:06:29;2.00;;;1.90;;
9720;SDS011;4899;42.644;23.366;2023-08-08T03:08:55;2.00;;;1.90;;
9720;SDS011;4899;42.644;23.366;2023-08-08T03:11:20;2.00;;;1.80;;
9720;SDS011;4899;42.644;23.366;2023-08-08T03:13:45;2.27;;;2.07;;
9720;SDS011;4899;42.644;23.366;2023-08-08T03:16:10;2.07;;;1.97;;
9720;SDS011;4899;42.644;23.366;2023-08-08T03:18:36;2.03;;;1.93;;
9720;SDS011;4899;42.644;23.366;2023-08-08T03:21:01;2.30;;;1.80;;
9720;SDS011;4899;42.644;23.366;2023-08-08T03:23:26;2.60;;;2.40;;
9720;SDS011;4899;42.644;23.366;2023-08-08T03:25:52;2.40;;;2.20;;
9720;SDS011;4899;42.644;23.366;2023-08-08T03:28:17;2.37;;;2.27;;
9720;SDS011;4899;42.644;23.366;2023-08-08T03:30:42;2.47;;;2.37;;
9720;SDS011;4899;42.644;23.366;2023-08-08T03:33:07;2.50;;;2.40;;
9720;SDS011;4899;42.644;23.366;2023-08-08T03:35:33;2.60;;;2.40;;
9720;SDS011;4899;42.644;23.366;2023-08-08T03:37:58;2.37;;;2.27;;
9720;SDS011;4899;42.644;23.366;2023-08-08T03:40:23;2.90;;;2.70;;
9720;SDS011;4899;42.644;23.366;2023-08-08T03:42:48;2.53;;;2.20;;
9720;SDS011;4899;42.644;23.366;2023-08-08T03:45:14;2.90;;;2.70;;
9720;SDS011;4899;42.644;23.366;2023-08-08T03:47:39;2.80;;;2.50;;
9720;SDS011;4899;42.644;23.366;2023-08-08T03:50:05;2.60;;;2.50;;
9720;SDS011;4899;42.644;23.366;2023-08-08T03:52:30;2.53;;;2.33;;
9720;SDS011;4899;42.644;23.366;2023-08-08T03:54:56;3.43;;;2.80;;
9720;SDS011;4899;42.644;23.366;2023-08-08T03:57:21;2.80;;;2.53;;
9720;SDS011;4899;42.644;23.366;2023-08-08T03:59:46;2.60;;;2.50;;
9720;SDS011;4899;42.644;23.366;2023-08-08T04:02:13;2.83;;;2.50;;
9720;SDS011;4899;42.644;23.366;2023-08-08T04:04:38;2.70;;;2.60;;
9720;SDS011;4899;42.644;23.366;2023-08-08T04:07:03;2.77;;;2.67;;
9720;SDS011;4899;42.644;23.366;2023-08-08T04:09:29;2.77;;;2.67;;
9720;SDS011;4899;42.644;23.366;2023-08-08T04:11:54;3.03;;;2.83;;
9720;SDS011;4899;42.644;23.366;2023-08-08T04:14:19;3.33;;;3.13;;
9720;SDS011;4899;42.644;23.366;2023-08-08T04:16:45;3.60;;;3.40;;
9720;SDS011;4899;42.644;23.366;2023-08-08T04:19:10;2.97;;;2.87;;
9720;SDS011;4899;42.644;23.366;2023-08-08T04:21:35;2.90;;;2.70;;
9720;SDS011;4899;42.644;23.366;2023-08-08T04:24:01;3.53;;;3.33;;
9720;SDS011;4899;42.644;23.366;2023-08-08T04:26:26;3.43;;;3.23;;
9720;SDS011;4899;42.644;23.366;2023-08-08T04:28:51;3.67;;;3.33;;
9720;SDS011;4899;42.644;23.366;2023-08-08T04:31:17;3.50;;;3.30;;
9720;SDS011;4899;42.644;23.366;2023-08-08T04:33:42;2.87;;;2.77;;
9720;SDS011;4899;42.644;23.366;2023-08-08T04:36:07;3.50;;;3.30;;
9720;SDS011;4899;42.644;23.366;2023-08-08T04:38:33;3.77;;;3.37;;
9720;SDS011;4899;42.644;23.366;2023-08-08T04:40:58;3.50;;;3.20;;
9720;SDS011;4899;42.644;23.366;2023-08-08T04:43:24;3.20;;;3.00;;
9720;SDS011;4899;42.644;23.366;2023-08-08T04:45:50;3.80;;;3.60;;
9720;SDS011;4899;42.644;23.366;2023-08-08T04:48:15;3.47;;;3.27;;
9720;SDS011;4899;42.644;23.366;2023-08-08T04:50:41;3.30;;;3.00;;
9720;SDS011;4899;42.644;23.366;2023-08-08T04:53:06;3.30;;;2.70;;
9720;SDS011;4899;42.644;23.366;2023-08-08T04:55:31;3.00;;;2.87;;
9720;SDS011;4899;42.644;23.366;2023-08-08T04:57:57;4.27;;;2.80;;
9720;SDS011;4899;42.644;23.366;2023-08-08T05:00:22;2.87;;;2.77;;
9720;SDS011;4899;42.644;23.366;2023-08-08T05:02:47;3.13;;;2.93;;
9720;SDS011;4899;42.644;23.366;2023-08-08T05:05:13;3.07;;;2.90;;
9720;SDS011;4899;42.644;23.366;2023-08-08T05:07:38;3.23;;;2.77;;
9720;SDS011;4899;42.644;23.366;2023-08-08T05:10:04;3.60;;;2.80;;
9720;SDS011;4899;42.644;23.366;2023-08-08T05:12:29;3.90;;;3.47;;
9720;SDS011;4899;42.644;23.366;2023-08-08T05:14:54;3.27;;;3.10;;
9720;SDS011;4899;42.644;23.366;2023-08-08T05:17:20;3.43;;;3.23;;
9720;SDS011;4899;42.644;23.366;2023-08-08T05:19:45;3.63;;;3.10;;
9720;SDS011;4899;42.644;23.366;2023-08-08T05:22:10;2.87;;;2.67;;
9720;SDS011;4899;42.644;23.366;2023-08-08T05:24:36;2.70;;;2.50;;
9720;SDS011;4899;42.644;23.366;2023-08-08T05:27:01;2.93;;;2.53;;
9720;SDS011;4899;42.644;23.366;2023-08-08T05:29:28;4.33;;;2.80;;
9720;SDS011;4899;42.644;23.366;2023-08-08T05:31:53;3.27;;;2.97;;
9720;SDS011;4899;42.644;23.366;2023-08-08T05:34:18;3.00;;;2.73;;
9720;SDS011;4899;42.644;23.366;2023-08-08T05:36:44;3.43;;;3.00;;
9720;SDS011;4899;42.644;23.366;2023-08-08T05:39:09;3.67;;;2.73;;
9720;SDS011;4899;42.644;23.366;2023-08-08T05:41:34;5.03;;;2.73;;
9720;SDS011;4899;42.644;23.366;2023-08-08T05:44:00;2.47;;;2.30;;
9720;SDS011;4899;42.644;23.366;2023-08-08T05:46:25;2.87;;;2.73;;
9720;SDS011;4899;42.644;23.366;2023-08-08T05:48:50;2.63;;;2.53;;
9720;SDS011;4899;42.644;23.366;2023-08-08T05:51:16;2.80;;;2.30;;
9720;SDS011;4899;42.644;23.366;2023-08-08T05:53:42;2.60;;;2.50;;
9720;SDS011;4899;42.644;23.366;2023-08-08T05:56:08;4.00;;;3.17;;
9720;SDS011;4899;42.644;23.366;2023-08-08T05:58:34;2.90;;;2.70;;
9720;SDS011;4899;42.644;23.366;2023-08-08T06:00:59;2.73;;;2.53;;
9720;SDS011;4899;42.644;23.366;2023-08-08T06:03:24;2.90;;;2.70;;
9720;SDS011;4899;42.644;23.366;2023-08-08T06:05:50;2.70;;;2.50;;
9720;SDS011;4899;42.644;23.366;2023-08-08T06:08:15;2.73;;;2.63;;
9720;SDS011;4899;42.644;23.366;2023-08-08T06:10:41;3.17;;;3.00;;
9720;SDS011;4899;42.644;23.366;2023-08-08T06:13:07;3.43;;;3.13;;
9720;SDS011;4899;42.644;23.366;2023-08-08T06:15:32;3.20;;;3.00;;
9720;SDS011;4899;42.644;23.366;2023-08-08T06:17:58;3.53;;;3.33;;
9720;SDS011;4899;42.644;23.366;2023-08-08T06:20:23;3.80;;;3.50;;
9720;SDS011;4899;42.644;23.366;2023-08-08T06:22:49;3.00;;;2.90;;
9720;SDS011;4899;42.644;23.366;2023-08-08T06:25:14;3.20;;;3.10;;
9720;SDS011;4899;42.644;23.366;2023-08-08T06:27:41;3.30;;;3.10;;
9720;SDS011;4899;42.644;23.366;2023-08-08T06:30:06;3.40;;;3.00;;
9720;SDS011;4899;42.644;23.366;2023-08-08T06:32:33;3.03;;;2.93;;
9720;SDS011;4899;42.644;23.366;2023-08-08T06:34:58;3.20;;;3.00;;
9720;SDS011;4899;42.644;23.366;2023-08-08T06:37:24;2.57;;;2.47;;
9720;SDS011;4899;42.644;23.366;2023-08-08T06:39:49;2.10;;;2.00;;
9720;SDS011;4899;42.644;23.366;2023-08-08T06:42:14;2.67;;;2.47;;
9720;SDS011;4899;42.644;23.366;2023-08-08T06:44:43;2.80;;;2.60;;
9720;SDS011;4899;42.644;23.366;2023-08-08T06:47:08;3.10;;;2.40;;
9720;SDS011;4899;42.644;23.366;2023-08-08T06:49:34;2.70;;;2.50;;
9720;SDS011;4899;42.644;23.366;2023-08-08T06:51:59;2.50;;;2.30;;
9720;SDS011;4899;42.644;23.366;2023-08-08T06:54:25;3.97;;;2.67;;
9720;SDS011;4899;42.644;23.366;2023-08-08T06:56:53;2.83;;;2.53;;
9720;SDS011;4899;42.644;23.366;2023-08-08T06:59:18;3.50;;;2.70;;
9720;SDS011;4899;42.644;23.366;2023-08-08T07:01:43;1.97;;;1.70;;
9720;SDS011;4899;42.644;23.366;2023-08-08T07:04:09;2.00;;;1.90;;
9720;SDS011;4899;42.644;23.366;2023-08-08T07:06:34;1.70;;;1.60;;
9720;SDS011;4899;42.644;23.366;2023-08-08T07:08:59;1.70;;;1.60;;
9720;SDS011;4899;42.644;23.366;2023-08-08T07:11:25;1.70;;;1.60;;
9720;SDS011;4899;42.644;23.366;2023-08-08T07:13:50;1.40;;;1.30;;
9720;SDS011;4899;42.644;23.366;2023-08-08T07:16:15;4.07;;;1.77;;
9720;SDS011;4899;42.644;23.366;2023-08-08T07:18:40;1.40;;;1.40;;
9720;SDS011;4899;42.644;23.366;2023-08-08T07:21:06;2.30;;;2.00;;
9720;SDS011;4899;42.644;23.366;2023-08-08T07:23:31;1.93;;;1.73;;
9720;SDS011;4899;42.644;23.366;2023-08-08T07:25:56;3.33;;;1.67;;
9720;SDS011;4899;42.644;23.366;2023-08-08T07:28:22;1.97;;;1.87;;
9720;SDS011;4899;42.644;23.366;2023-08-08T07:30:47;2.17;;;2.07;;
9720;SDS011;4899;42.644;23.366;2023-08-08T07:33:12;1.37;;;1.37;;
9720;SDS011;4899;42.644;23.366;2023-08-08T07:35:38;2.30;;;1.67;;
9720;SDS011;4899;42.644;23.366;2023-08-08T07:38:04;2.03;;;1.90;;
9720;SDS011;4899;42.644;23.366;2023-08-08T07:40:29;1.30;;;1.30;;
9720;SDS011;4899;42.644;23.366;2023-08-08T07:42:54;2.30;;;1.17;;
9720;SDS011;4899;42.644;23.366;2023-08-08T07:45:19;2.50;;;1.50;;
9720;SDS011;4899;42.644;23.366;2023-08-08T07:47:45;1.20;;;1.20;;
9720;SDS011;4899;42.644;23.366;2023-08-08T07:50:10;1.73;;;1.40;;
9720;SDS011;4899;42.644;23.366;2023-08-08T07:52:36;1.20;;;1.20;;
9720;SDS011;4899;42.644;23.366;2023-08-08T07:55:02;1.27;;;0.90;;
9720;SDS011;4899;42.644;23.366;2023-08-08T07:57:28;0.90;;;0.90;;
9720;SDS011;4899;42.644;23.366;2023-08-08T07:59:53;1.30;;;1.10;;
9720;SDS011;4899;42.644;23.366;2023-08-08T08:02:18;1.00;;;1.00;;
9720;SDS011;4899;42.644;23.366;2023-08-08T08:04:44;1.03;;;1.03;;
9720;SDS011;4899;42.644;23.366;2023-08-08T08:07:09;2.20;;;1.53;;
9720;SDS011;4899;42.644;23.366;2023-08-08T08:09:34;1.00;;;1.00;;
9720;SDS011;4899;42.644;23.366;2023-08-08T08:11:59;1.20;;;1.20;;
9720;SDS011;4899;42.644;23.366;2023-08-08T08:14:25;0.87;;;0.87;;
9720;SDS011;4899;42.644;23.366;2023-08-08T08:16:50;1.00;;;0.90;;
9720;SDS011;4899;42.644;23.366;2023-08-08T08:19:16;1.17;;;0.80;;
9720;SDS011;4899;42.644;23.366;2023-08-08T08:21:41;1.00;;;1.00;;
9720;SDS011;4899;42.644;23.366;2023-08-08T08:24:06;1.00;;;1.00;;
9720;SDS011;4899;42.644;23.366;2023-08-08T08:26:31;2.97;;;1.40;;
9720;SDS011;4899;42.644;23.366;2023-08-08T08:28:57;1.70;;;1.00;;
9720;SDS011;4899;42.644;23.366;2023-08-08T08:31:22;2.30;;;1.20;;
9720;SDS011;4899;42.644;23.366;2023-08-08T08:33:47;1.40;;;1.30;;
9720;SDS011;4899;42.644;23.366;2023-08-08T08:36:13;1.20;;;1.20;;
9720;SDS011;4899;42.644;23.366;2023-08-08T08:38:38;1.03;;;1.03;;
9720;SDS011;4899;42.644;23.366;2023-08-08T08:41:03;1.73;;;1.00;;
9720;SDS011;4899;42.644;23.366;2023-08-08T08:43:30;1.47;;;1.37;;
9720;SDS011;4899;42.644;23.366;2023-08-08T08:45:55;1.20;;;1.20;;
9720;SDS011;4899;42.644;23.366;2023-08-08T08:48:22;1.60;;;1.50;;
9720;SDS011;4899;42.644;23.366;2023-08-08T08:50:48;1.40;;;1.37;;
9720;SDS011;4899;42.644;23.366;2023-08-08T08:53:14;2.50;;;1.60;;
9720;SDS011;4899;42.644;23.366;2023-08-08T08:55:41;1.87;;;1.70;;
9720;SDS011;4899;42.644;23.366;2023-08-08T08:58:06;2.00;;;1.90;;
9720;SDS011;4899;42.644;23.366;2023-08-08T09:00:32;1.80;;;1.70;;
9720;SDS011;4899;42.644;23.366;2023-08-08T09:02:58;3.33;;;2.07;;
9720;SDS011;4899;42.644;23.366;2023-08-08T09:05:25;1.70;;;1.60;;
9720;SDS011;4899;42.644;23.366;2023-08-08T09:07:50;2.37;;;1.80;;
9720;SDS011;4899;42.644;23.366;2023-08-08T09:10:16;1.83;;;1.53;;
9720;SDS011;4899;42.644;23.366;2023-08-08T09:12:42;2.33;;;1.97;;
9720;SDS011;4899;42.644;23.366;2023-08-08T09:15:07;1.80;;;1.70;;
9720;SDS011;4899;42.644;23.366;2023-08-08T09:17:34;1.47;;;1.43;;
9720;SDS011;4899;42.644;23.366;2023-08-08T09:19:59;1.80;;;1.70;;
9720;SDS011;4899;42.644;23.366;2023-08-08T09:22:25;2.00;;;1.53;;
9720;SDS011;4899;42.644;23.366;2023-08-08T09:24:51;1.73;;;1.20;;
9720;SDS011;4899;42.644;23.366;2023-08-08T09:27:17;1.60;;;1.60;;
9720;SDS011;4899;42.644;23.366;2023-08-08T09:29:42;1.40;;;1.40;;
9720;SDS011;4899;42.644;23.366;2023-08-08T09:32:08;1.67;;;1.57;;
9720;SDS011;4899;42.644;23.366;2023-08-08T09:34:33;3.13;;;1.57;;
9720;SDS011;4899;42.644;23.366;2023-08-08T09:36:59;2.87;;;1.20;;
9720;SDS011;4899;42.644;23.366;2023-08-08T09:39:28;1.47;;;1.37;;
9720;SDS011;4899;42.644;23.366;2023-08-08T09:41:55;2.07;;;1.23;;
9720;SDS011;4899;42.644;23.366;2023-08-08T09:44:23;1.40;;;1.30;;
9720;SDS011;4899;42.644;23.366;2023-08-08T09:46:48;1.70;;;1.60;;
9720;SDS011;4899;42.644;23.366;2023-08-08T09:49:14;1.50;;;1.40;;
9720;SDS011;4899;42.644;23.366;2023-08-08T09:51:40;1.30;;;1.30;;
9720;SDS011;4899;42.644;23.366;2023-08-08T09:54:06;2.20;;;1.37;;
9720;SDS011;4899;42.644;23.366;2023-08-08T09:56:32;1.47;;;1.47;;
9720;SDS011;4899;42.644;23.366;2023-08-08T09:58:58;1.40;;;1.30;;
9720;SDS011;4899;42.644;23.366;2023-08-08T10:01:24;1.27;;;1.27;;
9720;SDS011;4899;42.644;23.366;2023-08-08T10:03:51;1.30;;;1.20;;
9720;SDS011;4899;42.644;23.366;2023-08-08T10:06:16;1.53;;;1.43;;
9720;SDS011;4899;42.644;23.366;2023-08-08T10:08:41;1.33;;;1.23;;
9720;SDS011;4899;42.644;23.366;2023-08-08T10:11:08;1.40;;;1.40;;
9720;SDS011;4899;42.644;23.366;2023-08-08T10:13:35;1.23;;;1.23;;
9720;SDS011;4899;42.644;23.366;2023-08-08T10:16:04;1.60;;;1.30;;
9720;SDS011;4899;42.644;23.366;2023-08-08T10:18:29;2.30;;;1.30;;
9720;SDS011;4899;42.644;23.366;2023-08-08T10:20:55;1.20;;;1.20;;
9720;SDS011;4899;42.644;23.366;2023-08-08T10:23:22;1.20;;;1.20;;
9720;SDS011;4899;42.644;23.366;2023-08-08T10:25:48;1.30;;;1.30;;
9720;SDS011;4899;42.644;23.366;2023-08-08T10:28:16;1.47;;;1.37;;
9720;SDS011;4899;42.644;23.366;2023-08-08T10:30:52;1.47;;;1.47;;
9720;SDS011;4899;42.644;23.366;2023-08-08T10:34:00;3.13;;;1.70;;
9720;SDS011;4899;42.644;23.366;2023-08-08T10:36:09;1.60;;;1.50;;
9720;SDS011;4899;42.644;23.366;2023-08-08T10:38:53;2.20;;;1.83;;
9720;SDS011;4899;42.644;23.366;2023-08-08T10:41:22;1.70;;;1.60;;
9720;SDS011;4899;42.644;23.366;2023-08-08T10:43:51;1.23;;;1.23;;
9720;SDS011;4899;42.644;23.366;2023-08-08T10:46:24;2.17;;;1.70;;
9720;SDS011;4899;42.644;23.366;2023-08-08T10:48:53;1.53;;;1.43;;
9720;SDS011;4899;42.644;23.366;2023-08-08T10:51:19;1.10;;;1.10;;
9720;SDS011;4899;42.644;23.366;2023-08-08T10:53:44;1.60;;;1.50;;
9720;SDS011;4899;42.644;23.366;2023-08-08T10:56:12;1.57;;;1.57;;
9720;SDS011;4899;42.644;23.366;2023-08-08T10:58:41;1.67;;;1.67;;
9720;SDS011;4899;42.644;23.366;2023-08-08T11:01:07;1.50;;;1.50;;
9720;SDS011;4899;42.644;23.366;2023-08-08T11:03:37;1.40;;;1.40;;
9720;SDS011;4899;42.644;23.366;2023-08-08T11:06:07;1.40;;;1.30;;
9720;SDS011;4899;42.644;23.366;2023-08-08T11:08:33;1.37;;;1.27;;
9720;SDS011;4899;42.644;23.366;2023-08-08T11:11:00;1.80;;;1.20;;
9720;SDS011;4899;42.644;23.366;2023-08-08T11:13:25;1.20;;;1.20;;
9720;SDS011;4899;42.644;23.366;2023-08-08T11:15:51;1.20;;;1.20;;
9720;SDS011;4899;42.644;23.366;2023-08-08T11:18:16;1.10;;;1.10;;
9720;SDS011;4899;42.644;23.366;2023-08-08T11:20:41;1.00;;;1.00;;
9720;SDS011;4899;42.644;23.366;2023-08-08T11:23:07;0.83;;;0.83;;
9720;SDS011;4899;42.644;23.366;2023-08-08T11:25:35;1.03;;;1.00;;
9720;SDS011;4899;42.644;23.366;2023-08-08T11:28:00;1.30;;;1.00;;
9720;SDS011;4899;42.644;23.366;2023-08-08T11:30:30;1.30;;;1.20;;
9720;SDS011;4899;42.644;23.366;2023-08-08T11:32:55;1.30;;;1.20;;
9720;SDS011;4899;42.644;23.366;2023-08-08T11:35:24;1.37;;;1.27;;
9720;SDS011;4899;42.644;23.366;2023-08-08T11:37:50;1.63;;;1.07;;
9720;SDS011;4899;42.644;23.366;2023-08-08T11:40:16;1.13;;;1.13;;
9720;SDS011;4899;42.644;23.366;2023-08-08T11:42:42;1.17;;;1.05;;
9720;SDS011;4899;42.644;23.366;2023-08-08T11:45:08;1.83;;;1.10;;
9720;SDS011;4899;42.644;23.366;2023-08-08T11:47:34;1.10;;;1.10;;
9720;SDS011;4899;42.644;23.366;2023-08-08T11:50:02;1.95;;;1.15;;
9720;SDS011;4899;42.644;23.366;2023-08-08T11:52:28;0.90;;;0.90;;
9720;SDS011;4899;42.644;23.366;2023-08-08T11:54:53;1.48;;;0.88;;
9720;SDS011;4899;42.644;23.366;2023-08-08T11:57:19;1.85;;;1.00;;
9720;SDS011;4899;42.644;23.366;2023-08-08T11:59:44;1.02;;;1.02;;
9720;SDS011;4899;42.644;23.366;2023-08-08T12:02:09;1.00;;;1.00;;
9720;SDS011;4899;42.644;23.366;2023-08-08T12:04:34;1.02;;;1.02;;
9720;SDS011;4899;42.644;23.366;2023-08-08T12:07:00;1.25;;;1.13;;
9720;SDS011;4899;42.644;23.366;2023-08-08T12:09:31;1.08;;;0.90;;
9720;SDS011;4899;42.644;23.366;2023-08-08T12:11:58;1.00;;;1.00;;
9720;SDS011;4899;42.644;23.366;2023-08-08T12:14:24;0.85;;;0.85;;
9720;SDS011;4899;42.644;23.366;2023-08-08T12:16:50;1.20;;;0.80;;
9720;SDS011;4899;42.644;23.366;2023-08-08T12:19:15;1.33;;;1.20;;
9720;SDS011;4899;42.644;23.366;2023-08-08T12:21:46;0.95;;;0.90;;
9720;SDS011;4899;42.644;23.366;2023-08-08T12:24:11;1.70;;;1.02;;
9720;SDS011;4899;42.644;23.366;2023-08-08T12:26:36;1.10;;;1.00;;
9720;SDS011;4899;42.644;23.366;2023-08-08T12:29:02;1.35;;;1.05;;
9720;SDS011;4899;42.644;23.366;2023-08-08T12:31:27;1.02;;;1.00;;
9720;SDS011;4899;42.644;23.366;2023-08-08T12:33:53;1.85;;;0.80;;
9720;SDS011;4899;42.644;23.366;2023-08-08T12:36:18;1.48;;;1.00;;
9720;SDS011;4899;42.644;23.366;2023-08-08T12:38:43;0.77;;;0.77;;
9720;SDS011;4899;42.644;23.366;2023-08-08T12:41:10;0.88;;;0.77;;
9720;SDS011;4899;42.644;23.366;2023-08-08T12:43:36;2.28;;;0.90;;
9720;SDS011;4899;42.644;23.366;2023-08-08T12:46:01;1.00;;;1.00;;
9720;SDS011;4899;42.644;23.366;2023-08-08T12:48:26;0.93;;;0.90;;
9720;SDS011;4899;42.644;23.366;2023-08-08T12:50:51;0.90;;;0.90;;
9720;SDS011;4899;42.644;23.366;2023-08-08T12:53:17;0.90;;;0.90;;
9720;SDS011;4899;42.644;23.366;2023-08-08T12:55:42;1.73;;;0.80;;
9720;SDS011;4899;42.644;23.366;2023-08-08T12:58:08;1.08;;;1.00;;
9720;SDS011;4899;42.644;23.366;2023-08-08T13:00:33;0.80;;;0.80;;
9720;SDS011;4899;42.644;23.366;2023-08-08T13:02:59;4.18;;;1.00;;
9720;SDS011;4899;42.644;23.366;2023-08-08T13:05:24;1.00;;;0.85;;
9720;SDS011;4899;42.644;23.366;2023-08-08T13:07:49;0.70;;;0.70;;
9720;SDS011;4899;42.644;23.366;2023-08-08T13:10:14;0.70;;;0.70;;
9720;SDS011;4899;42.644;23.366;2023-08-08T13:12:40;0.70;;;0.70;;
9720;SDS011;4899;42.644;23.366;2023-08-08T13:15:05;1.20;;;1.00;;
9720;SDS011;4899;42.644;23.366;2023-08-08T13:17:30;0.80;;;0.80;;
9720;SDS011;4899;42.644;23.366;2023-08-08T13:19:56;0.95;;;0.95;;
9720;SDS011;4899;42.644;23.366;2023-08-08T13:22:22;1.20;;;1.10;;
9720;SDS011;4899;42.644;23.366;2023-08-08T13:24:47;1.55;;;1.00;;
9720;SDS011;4899;42.644;23.366;2023-08-08T13:27:12;1.48;;;0.82;;
9720;SDS011;4899;42.644;23.366;2023-08-08T13:29:38;3.38;;;1.02;;
9720;SDS011;4899;42.644;23.366;2023-08-08T13:32:03;2.97;;;1.10;;
9720;SDS011;4899;42.644;23.366;2023-08-08T13:34:29;1.90;;;0.98;;
9720;SDS011;4899;42.644;23.366;2023-08-08T13:36:54;0.80;;;0.80;;
9720;SDS011;4899;42.644;23.366;2023-08-08T13:39:19;1.85;;;1.05;;
9720;SDS011;4899;42.644;23.366;2023-08-08T13:41:45;1.17;;;1.10;;
9720;SDS011;4899;42.644;23.366;2023-08-08T13:44:10;0.80;;;0.80;;
9720;SDS011;4899;42.644;23.366;2023-08-08T13:46:35;1.88;;;0.90;;
9720;SDS011;4899;42.644;23.366;2023-08-08T13:49:00;1.00;;;1.00;;
9720;SDS011;4899;42.644;23.366;2023-08-08T13:51:26;2.60;;;1.00;;
9720;SDS011;4899;42.644;23.366;2023-08-08T13:53:51;0.95;;;0.95;;
9720;SDS011;4899;42.644;23.366;2023-08-08T13:56:16;0.95;;;0.95;;
9720;SDS011;4899;42.644;23.366;2023-08-08T13:58:42;1.02;;;0.90;;
9720;SDS011;4899;42.644;23.366;2023-08-08T14:01:07;1.05;;;1.00;;
9720;SDS011;4899;42.644;23.366;2023-08-08T14:03:32;0.93;;;0.90;;
9720;SDS011;4899;42.644;23.366;2023-08-08T14:05:58;1.83;;;1.30;;
9720;SDS011;4899;42.644;23.366;2023-08-08T14:08:23;1.00;;;1.00;;
9720;SDS011;4899;42.644;23.366;2023-08-08T14:10:48;2.60;;;1.08;;
9720;SDS011;4899;42.644;23.366;2023-08-08T14:13:14;2.47;;;1.00;;
9720;SDS011;4899;42.644;23.366;2023-08-08T14:15:39;2.42;;;1.02;;
9720;SDS011;4899;42.644;23.366;2023-08-08T14:18:04;3.28;;;1.10;;
9720;SDS011;4899;42.644;23.366;2023-08-08T14:20:30;0.98;;;0.88;;
9720;SDS011;4899;42.644;23.366;2023-08-08T14:22:55;1.00;;;0.90;;
9720;SDS011;4899;42.644;23.366;2023-08-08T14:25:21;1.13;;;1.02;;
9720;SDS011;4899;42.644;23.366;2023-08-08T14:27:46;0.90;;;0.90;;
9720;SDS011;4899;42.644;23.366;2023-08-08T14:30:11;0.98;;;0.98;;
9720;SDS011;4899;42.644;23.366;2023-08-08T14:32:37;1.40;;;1.17;;
9720;SDS011;4899;42.644;23.366;2023-08-08T14:35:02;0.93;;;0.93;;
9720;SDS011;4899;42.644;23.366;2023-08-08T14:37:29;1.55;;;1.05;;
9720;SDS011;4899;42.644;23.366;2023-08-08T14:39:55;1.00;;;0.90;;
9720;SDS011;4899;42.644;23.366;2023-08-08T14:42:21;0.88;;;0.80;;
9720;SDS011;4899;42.644;23.366;2023-08-08T14:44:46;1.00;;;1.00;;
9720;SDS011;4899;42.644;23.366;2023-08-08T14:47:11;1.02;;;0.80;;
9720;SDS011;4899;42.644;23.366;2023-08-08T14:49:36;0.85;;;0.85;;
9720;SDS011;4899;42.644;23.366;2023-08-08T14:52:02;1.20;;;1.10;;
9720;SDS011;4899;42.644;23.366;2023-08-08T14:54:27;0.85;;;0.85;;